Time;durP1;ratioP1;P1;durP2;ratioP2;P2;SDS_P1;SDS_P2;PMS_P1;PMS_P2;Temp;Humidity;BMP_temperature;BMP_pressure;BME280_temperature;BME280_humidity;BME280_pressure;Samples;Min_cycle;Max_cycle;Signal;HPM_P1;HPM_P2
2023/03/16 00:09:12;;;;;;;1999.90;999.90;;;2.70;99.90;;;;;;6735252;88;20559;-79
2023/03/16 00:19:13;;;;;;;1999.90;999.90;;;2.60;99.90;;;;;;6734664;88;20210;-79
2023/03/16 00:29:14;;;;;;;1999.90;999.90;;;2.60;99.90;;;;;;6730736;88;20193;-78
2023/03/16 00:39:14;;;;;;;1999.90;999.90;;;2.50;99.90;;;;;;6736393;88;20189;-78
2023/03/16 00:49:15;;;;;;;1999.90;999.90;;;2.40;99.90;;;;;;6739244;88;20201;-77
2023/03/16 00:59:15;;;;;;;1999.90;999.90;;;2.40;99.90;;;;;;6737092;88;20235;-78
2023/03/16 01:09:16;;;;;;;1999.90;999.90;;;2.50;99.90;;;;;;6734752;88;20217;-79
2023/03/16 01:19:17;;;;;;;1999.90;999.90;;;2.60;99.90;;;;;;6736350;88;20193;-78
2023/03/16 01:29:18;;;;;;;1999.90;999.90;;;2.60;99.90;;;;;;6735471;88;20190;-77
2023/03/16 01:39:18;;;;;;;1999.90;999.90;;;2.70;99.90;;;;;;6740025;88;20279;-78
2023/03/16 01:49:26;;;;;;;1999.90;999.90;;;2.70;99.90;;;;;;6742237;88;20616;-78
2023/03/16 01:59:33;;;;;;;1999.90;999.90;;;2.60;99.90;;;;;;6741750;88;20203;-79
2023/03/16 02:09:38;;;;;;;1999.90;999.90;;;2.60;99.90;;;;;;6739891;88;20222;-78
2023/03/16 02:20:10;;;;;;;1999.90;999.90;;;2.60;99.90;;;;;;6738376;88;20239;-78
2023/03/16 02:30:14;;;;;;;1999.90;999.90;;;2.70;99.90;;;;;;6741438;88;20192;-76
2023/03/16 02:40:29;;;;;;;1999.90;999.90;;;2.70;99.90;;;;;;6741689;88;20181;-78
2023/03/16 02:50:30;;;;;;;1999.90;999.90;;;2.70;99.90;;;;;;6741718;88;20643;-77
2023/03/16 03:00:31;;;;;;;1999.90;999.90;;;2.60;99.90;;;;;;6744268;88;20288;-77
2023/03/16 03:20:34;;;;;;;1999.90;999.90;;;2.50;99.90;;;;;;6661558;88;20221;-76
2023/03/16 03:30:35;;;;;;;1999.90;999.90;;;2.50;99.90;;;;;;6703101;88;20251;-76
2023/03/16 03:40:36;;;;;;;1999.90;999.90;;;2.50;99.90;;;;;;6702960;88;20185;-76
2023/03/16 03:50:38;;;;;;;1999.90;999.90;;;2.50;99.90;;;;;;6685773;88;20245;-77
2023/03/16 04:00:39;;;;;;;1999.90;999.90;;;2.60;99.90;;;;;;6683854;88;20517;-76
2023/03/16 04:10:40;;;;;;;1999.90;999.90;;;2.60;99.90;;;;;;6683998;88;20183;-77
2023/03/16 04:20:41;;;;;;;1999.90;999.90;;;2.70;99.90;;;;;;6685934;88;20186;-76
2023/03/16 04:30:41;;;;;;;1999.90;999.90;;;2.70;99.90;;;;;;6685522;88;20199;-76
2023/03/16 04:40:42;;;;;;;1999.90;999.90;;;2.70;99.90;;;;;;6685519;88;20194;-76
2023/03/16 04:50:42;;;;;;;1999.90;999.90;;;2.80;99.90;;;;;;6684996;88;20695;-76
2023/03/16 05:00:44;;;;;;;1999.90;999.90;;;2.90;99.90;;;;;;6684531;88;20722;-77
2023/03/16 05:10:46;;;;;;;1999.90;999.90;;;3.00;99.90;;;;;;6686384;88;21097;-75
2023/03/16 05:20:57;;;;;;;1999.90;999.90;;;3.00;99.90;;;;;;6688071;88;20936;-78
2023/03/16 05:30:57;;;;;;;1999.90;999.90;;;2.90;99.90;;;;;;6691153;88;20206;-77
2023/03/16 05:41:00;;;;;;;1999.90;999.90;;;2.90;99.90;;;;;;6687144;88;20195;-76
2023/03/16 05:51:04;;;;;;;1999.90;999.90;;;2.90;99.90;;;;;;6690479;88;20684;-76
2023/03/16 06:01:06;;;;;;;1999.90;999.90;;;3.00;99.90;;;;;;6688796;88;20244;-78
2023/03/16 06:11:07;;;;;;;1999.90;999.90;;;2.90;99.90;;;;;;6687109;88;20317;-75
2023/03/16 06:21:07;;;;;;;1999.90;999.90;;;3.00;99.90;;;;;;6687232;88;20593;-75
2023/03/16 06:31:08;;;;;;;1999.90;999.90;;;3.00;99.90;;;;;;6686694;88;20643;-76
2023/03/16 06:41:08;;;;;;;1999.90;999.90;;;3.10;99.90;;;;;;6687112;88;20299;-76
2023/03/16 06:51:09;;;;;;;1999.90;999.90;;;3.30;99.90;;;;;;6687101;88;20331;-77
2023/03/16 07:01:11;;;;;;;1999.90;999.90;;;3.40;99.90;;;;;;6685361;88;20501;-76
2023/03/16 07:11:13;;;;;;;1999.90;999.90;;;3.60;99.90;;;;;;6689225;88;20192;-78
2023/03/16 07:21:14;;;;;;;1999.90;999.90;;;3.80;99.90;;;;;;6712172;88;20202;-78
2023/03/16 07:31:14;;;;;;;1999.90;999.90;;;4.10;99.90;;;;;;6703278;88;20696;-78
2023/03/16 07:41:15;;;;;;;1999.90;999.90;;;4.30;99.90;;;;;;6707900;88;20277;-79
2023/03/16 07:51:15;;;;;;;1999.90;999.90;;;4.60;99.90;;;;;;6707987;88;20226;-78
2023/03/16 08:01:16;;;;;;;1999.90;999.90;;;5.00;99.90;;;;;;6709302;88;20706;-78
2023/03/16 08:11:22;;;;;;;1999.90;999.90;;;4.90;99.90;;;;;;6708365;88;20291;-79
2023/03/16 08:21:23;;;;;;;1999.90;999.90;;;5.20;99.90;;;;;;6706226;88;20282;-76
2023/03/16 08:31:24;;;;;;;1999.90;999.90;;;5.30;99.90;;;;;;6708111;88;20306;-79
2023/03/16 08:41:24;;;;;;;1999.90;999.90;;;5.20;99.90;;;;;;6706646;88;20269;-78
2023/03/16 08:51:26;;;;;;;1999.90;999.90;;;5.40;99.90;;;;;;6706073;88;20225;-78
2023/03/16 09:01:26;;;;;;;1999.90;999.90;;;5.90;99.90;;;;;;6706055;88;20185;-79
2023/03/16 09:21:30;;;;;;;1999.90;999.90;;;6.40;99.90;;;;;;6730452;88;20229;-77
2023/03/16 09:31:32;;;;;;;1999.90;999.90;;;6.10;99.90;;;;;;6718697;88;20365;-78
2023/03/16 09:41:40;;;;;;;1999.90;999.90;;;6.60;99.90;;;;;;6718372;88;20631;-77
2023/03/16 09:51:50;;;;;;;1999.90;999.90;;;7.20;99.90;;;;;;6719696;88;20242;-77
2023/03/16 10:02:03;;;;;;;1999.90;999.90;;;7.20;99.90;;;;;;6721057;88;20217;-76
2023/03/16 10:12:07;;;;;;;1999.90;999.90;;;7.10;99.90;;;;;;6722263;88;20294;-77
2023/03/16 10:22:22;;;;;;;1999.90;999.90;;;7.40;99.90;;;;;;6738219;88;20239;-78
2023/03/16 10:32:27;;;;;;;1999.90;999.90;;;7.40;99.90;;;;;;6737766;88;20176;-77
2023/03/16 10:42:27;;;;;;;1999.90;999.90;;;7.30;99.90;;;;;;6719625;88;20199;-78
2023/03/16 10:52:33;;;;;;;1999.90;999.90;;;7.60;99.90;;;;;;6719431;88;20242;-77
2023/03/16 11:02:34;;;;;;;1999.90;999.90;;;8.40;99.90;;;;;;6726263;88;20310;-78
2023/03/16 11:12:35;;;;;;;1999.90;999.90;;;8.80;99.90;;;;;;6719993;88;20186;-78
2023/03/16 11:22:37;;;;;;;1999.90;999.90;;;9.60;99.90;;;;;;6720228;88;20683;-78
2023/03/16 11:32:40;;;;;;;1999.90;999.90;;;9.90;99.90;;;;;;6735461;88;20801;-77
2023/03/16 11:42:47;;;;;;;1999.90;999.90;;;9.80;99.90;;;;;;6734455;88;20335;-77
2023/03/16 11:53:06;;;;;;;1999.90;999.90;;;10.80;99.90;;;;;;6738110;88;20188;-78
2023/03/16 12:03:23;;;;;;;1999.90;999.90;;;10.70;99.90;;;;;;6735128;88;20710;-78
2023/03/16 12:13:36;;;;;;;1999.90;999.90;;;11.60;99.90;;;;;;6720594;88;20222;-78
2023/03/16 12:23:44;;;;;;;1999.90;999.90;;;11.60;99.90;;;;;;6729536;88;20186;-77
2023/03/16 12:34:06;;;;;;;1999.90;999.90;;;11.70;99.90;;;;;;6739708;88;20622;-77
2023/03/16 12:44:22;;;;;;;1999.90;999.90;;;11.90;99.90;;;;;;6728879;88;20799;-78
2023/03/16 12:54:24;;;;;;;1999.90;999.90;;;12.30;99.90;;;;;;6739475;88;20687;-77
2023/03/16 13:04:39;;;;;;;1999.90;999.90;;;12.00;99.90;;;;;;6721496;88;20312;-77
2023/03/16 13:14:42;;;;;;;1999.90;999.90;;;12.10;99.90;;;;;;6736023;88;20193;-79
2023/03/16 13:24:51;;;;;;;1999.90;999.90;;;12.00;99.90;;;;;;6735579;88;20205;-78
2023/03/16 13:34:56;;;;;;;1999.90;999.90;;;11.90;99.90;;;;;;6738803;88;20193;-77
2023/03/16 13:44:57;;;;;;;1999.90;999.90;;;11.90;99.90;;;;;;6736536;88;20188;-76
2023/03/16 13:55:00;;;;;;;1999.90;999.90;;;12.00;99.90;;;;;;6739260;88;20210;-78
2023/03/16 14:05:28;;;;;;;1999.90;999.90;;;12.40;99.90;;;;;;6738907;88;20343;-77
2023/03/16 14:15:29;;;;;;;1999.90;999.90;;;12.90;99.90;;;;;;6730856;88;20202;-78
2023/03/16 14:25:30;;;;;;;1999.90;999.90;;;12.80;99.90;;;;;;6732555;88;20276;-79
2023/03/16 14:35:39;;;;;;;1999.90;999.90;;;12.50;99.90;;;;;;6738727;88;20962;-76
2023/03/16 14:45:40;;;;;;;1999.90;999.90;;;12.00;99.90;;;;;;6733270;88;20198;-77
2023/03/16 14:55:42;;;;;;;1999.90;999.90;;;12.40;99.90;;;;;;6738715;88;20661;-78
2023/03/16 15:05:46;;;;;;;1999.90;999.90;;;12.30;99.90;;;;;;6740554;88;20177;-76
2023/03/16 15:15:47;;;;;;;1999.90;999.90;;;12.40;99.90;;;;;;6742931;88;20226;-79
2023/03/16 15:25:48;;;;;;;1999.90;999.90;;;12.60;99.90;;;;;;6740427;88;20728;-78
2023/03/16 15:35:50;;;;;;;1999.90;999.90;;;12.60;99.90;;;;;;6737203;88;20222;-78
2023/03/16 15:45:52;;;;;;;1999.90;999.90;;;12.30;99.90;;;;;;6738426;88;20645;-79
2023/03/16 15:56:00;;;;;;;1999.90;999.90;;;12.20;99.90;;;;;;6738387;88;20193;-78
2023/03/16 16:06:00;;;;;;;1999.90;999.90;;;12.00;99.90;;;;;;6734850;88;20306;-79
2023/03/16 16:16:01;;;;;;;1999.90;999.90;;;11.90;99.90;;;;;;6740970;88;20247;-79
2023/03/16 16:26:14;;;;;;;1999.90;999.90;;;11.70;99.90;;;;;;6736393;88;20199;-79
2023/03/16 16:36:18;;;;;;;1999.90;999.90;;;11.50;99.90;;;;;;6736033;88;21409;-79
2023/03/16 16:46:25;;;;;;;1999.90;999.90;;;11.30;99.90;;;;;;6742685;88;20173;-80
2023/03/16 16:56:34;;;;;;;1999.90;999.90;;;11.20;99.90;;;;;;6742711;88;20204;-79
2023/03/16 17:06:35;;;;;;;1999.90;999.90;;;11.00;99.90;;;;;;6754703;88;20150;-80
2023/03/16 17:16:36;;;;;;;1999.90;999.90;;;10.90;99.90;;;;;;6763268;88;20222;-80
2023/03/16 17:26:41;;;;;;;1999.90;999.90;;;10.70;99.90;;;;;;6744274;88;20204;-79
2023/03/16 17:36:42;;;;;;;1999.90;999.90;;;10.60;99.90;;;;;;6745561;88;20211;-80
2023/03/16 17:46:43;;;;;;;1999.90;999.90;;;10.50;99.90;;;;;;6745188;88;20189;-80
2023/03/16 17:56:46;;;;;;;1999.90;999.90;;;10.40;99.90;;;;;;6739312;88;20308;-79
2023/03/16 18:06:47;;;;;;;1999.90;999.90;;;10.20;99.90;;;;;;6736023;88;20176;-78
2023/03/16 18:16:47;;;;;;;1999.90;999.90;;;10.10;99.90;;;;;;6736570;88;20209;-79
2023/03/16 18:26:48;;;;;;;1999.90;999.90;;;10.10;99.90;;;;;;6740619;88;20232;-79
2023/03/16 18:36:51;;;;;;;1999.90;999.90;;;10.00;99.90;;;;;;6737829;88;20580;-79
2023/03/16 18:46:58;;;;;;;1999.90;999.90;;;10.00;99.90;;;;;;6738628;88;20693;-77
2023/03/16 18:56:59;;;;;;;1999.90;999.90;;;9.90;99.90;;;;;;6733761;88;20177;-76
2023/03/16 19:06:59;;;;;;;1999.90;999.90;;;9.90;99.90;;;;;;6724567;88;20977;-75
2023/03/16 19:17:00;;;;;;;1999.90;999.90;;;9.80;99.90;;;;;;6729195;88;20497;-78
2023/03/16 19:27:01;;;;;;;1999.90;999.90;;;9.80;99.90;;;;;;6734324;88;20238;-77
2023/03/16 19:37:01;;;;;;;1999.90;999.90;;;9.70;99.90;;;;;;6732821;88;20770;-77
2023/03/16 19:47:03;;;;;;;1999.90;999.90;;;9.60;99.90;;;;;;6732258;88;20257;-78
2023/03/16 19:57:13;;;;;;;1999.90;999.90;;;9.60;99.90;;;;;;6733814;88;20178;-77
2023/03/16 20:07:15;;;;;;;1999.90;999.90;;;9.60;99.90;;;;;;6730368;88;20246;-78
2023/03/16 20:17:27;;;;;;;1999.90;999.90;;;9.60;99.90;;;;;;6733667;88;20258;-78
2023/03/16 20:27:28;;;;;;;1999.90;999.90;;;9.50;99.90;;;;;;6733522;88;20628;-78
2023/03/16 20:37:29;;;;;;;1999.90;999.90;;;9.50;99.90;;;;;;6734042;88;20363;-78
2023/03/16 20:47:30;;;;;;;1999.90;999.90;;;9.50;99.90;;;;;;6731822;88;20527;-78
2023/03/16 20:57:31;;;;;;;1999.90;999.90;;;9.50;99.90;;;;;;6733193;88;20661;-77
2023/03/16 21:07:32;;;;;;;1999.90;999.90;;;9.40;99.90;;;;;;6729009;88;20274;-77
2023/03/16 21:17:36;;;;;;;1999.90;999.90;;;9.40;99.90;;;;;;6744291;76;20189;-77
2023/03/16 21:27:38;;;;;;;1999.90;999.90;;;9.40;99.90;;;;;;6736952;88;20181;-77
2023/03/16 21:37:38;;;;;;;1999.90;999.90;;;9.40;99.90;;;;;;6730142;88;20778;-77
2023/03/16 21:47:40;;;;;;;1999.90;999.90;;;9.40;99.90;;;;;;6735902;88;20185;-76
2023/03/16 21:57:41;;;;;;;1999.90;999.90;;;9.40;99.90;;;;;;6732713;88;20185;-76
2023/03/16 22:07:41;;;;;;;1999.90;999.90;;;9.30;99.90;;;;;;6738799;88;20769;-76
2023/03/16 22:17:42;;;;;;;1999.90;999.90;;;9.30;99.90;;;;;;6737053;88;20202;-77
2023/03/16 22:27:43;;;;;;;1999.90;999.90;;;9.30;99.90;;;;;;6740047;88;20191;-77
2023/03/16 22:37:43;;;;;;;1999.90;999.90;;;9.30;99.90;;;;;;6741153;88;20208;-77
2023/03/16 22:47:44;;;;;;;1999.90;999.90;;;9.30;99.90;;;;;;6745376;88;20679;-77
2023/03/16 22:57:46;;;;;;;1999.90;999.90;;;9.20;99.90;;;;;;6737494;88;20192;-77
2023/03/16 23:07:47;;;;;;;1999.90;999.90;;;9.10;99.90;;;;;;6736630;88;20655;-77
2023/03/16 23:17:47;;;;;;;1999.90;999.90;;;9.10;99.90;;;;;;6738210;88;20326;-77
2023/03/16 23:27:50;;;;;;;1999.90;999.90;;;9.00;99.90;;;;;;6735858;88;20635;-77
2023/03/16 23:37:51;;;;;;;1999.90;999.90;;;9.00;99.90;;;;;;6738352;88;20632;-78
2023/03/16 23:47:54;;;;;;;1999.90;999.90;;;9.00;99.90;;;;;;6736637;88;20223;-77
2023/03/16 23:57:55;;;;;;;1999.90;999.90;;;9.00;99.90;;;;;;6735887;88;20624;-77
